createdAt,value
2022-11-04T00:00:10.820Z,97195.59
2022-11-04T00:02:37.369Z,97192.81
2022-11-04T00:05:04.087Z,97195.75
2022-11-04T00:07:49.105Z,97208.28
2022-11-04T00:10:15.503Z,97193.28
2022-11-04T00:12:41.916Z,97189.88
2022-11-04T00:15:26.892Z,97192.97
2022-11-04T00:17:53.333Z,97196.44
2022-11-04T00:20:38.201Z,97193.63
2022-11-04T00:23:23.085Z,97215.88
2022-11-04T00:26:07.959Z,97216.78
2022-11-04T00:28:43.070Z,97215.88
2022-11-04T00:31:28.643Z,97226.44
2022-11-04T00:33:58.198Z,97229.16
2022-11-04T00:36:26.081Z,97227.34
2022-11-04T00:38:52.642Z,97237.00
2022-11-04T00:41:28.807Z,97236.25
2022-11-04T00:44:01.179Z,97239.72
2022-11-04T00:46:29.250Z,97246.81
2022-11-04T00:48:56.073Z,97252.72
2022-11-04T00:51:22.716Z,97245.16
2022-11-04T00:53:49.899Z,97246.00
2022-11-04T00:56:16.855Z,97253.84
2022-11-04T00:58:43.581Z,97246.38
2022-11-04T01:01:18.148Z,97255.00
2022-11-04T01:03:50.216Z,97262.94
2022-11-04T01:06:17.720Z,97261.28
2022-11-04T01:08:44.321Z,97256.28
2022-11-04T01:11:12.605Z,97248.56
2022-11-04T01:13:39.893Z,97257.25
2022-11-04T01:16:08.758Z,97253.06
2022-11-04T01:18:35.947Z,97236.72
2022-11-04T01:21:05.136Z,97256.53
2022-11-04T01:23:31.701Z,97255.69
2022-11-04T01:25:58.131Z,97254.00
2022-11-04T01:28:24.523Z,97241.28
2022-11-04T01:30:50.984Z,97242.13
2022-11-04T01:33:17.605Z,97247.28
2022-11-04T01:35:44.086Z,97242.25
2022-11-04T01:38:11.255Z,97246.09
2022-11-04T01:40:39.988Z,97240.94
2022-11-04T01:43:13.228Z,97245.34
2022-11-04T01:45:39.745Z,97249.72
2022-11-04T01:48:17.460Z,97259.16
2022-11-04T01:50:44.031Z,97266.81
2022-11-04T01:53:15.951Z,97272.94
2022-11-04T01:55:52.708Z,97268.56
2022-11-04T01:58:23.189Z,97248.88
2022-11-04T02:00:50.014Z,97259.09
2022-11-04T02:03:34.279Z,97265.03
2022-11-04T02:06:02.446Z,97278.66
2022-11-04T02:08:29.880Z,97292.41
2022-11-04T02:11:02.182Z,97295.72
2022-11-04T02:13:31.776Z,97301.63
2022-11-04T02:16:16.380Z,97316.38
2022-11-04T02:19:18.206Z,97327.06
2022-11-04T02:22:14.009Z,97328.09
2022-11-04T02:25:01.649Z,97325.38
2022-11-04T02:27:37.800Z,97316.94
2022-11-04T02:30:16.731Z,97316.94
2022-11-04T02:33:10.915Z,97312.56
2022-11-04T02:35:49.526Z,97320.56
2022-11-04T02:38:26.971Z,97317.94
2022-11-04T02:41:25.365Z,97316.78
2022-11-04T02:44:19.281Z,97322.09
2022-11-04T02:46:57.360Z,97315.22
2022-11-04T02:49:32.698Z,97317.94
2022-11-04T02:52:06.002Z,97319.44
2022-11-04T02:54:55.499Z,97316.13
2022-11-04T02:57:28.929Z,97316.25
2022-11-04T03:00:01.448Z,97307.78
2022-11-04T03:02:38.000Z,97303.38
2022-11-04T03:05:08.348Z,97306.91
2022-11-04T03:07:37.943Z,97307.88
2022-11-04T03:10:18.978Z,97302.72
2022-11-04T03:12:58.384Z,97292.41
2022-11-04T03:15:28.890Z,97287.22
2022-11-04T03:18:16.412Z,97287.28
2022-11-04T03:20:46.283Z,97293.22
2022-11-04T03:23:13.570Z,97293.34
2022-11-04T03:25:44.747Z,97291.66
2022-11-04T03:28:25.405Z,97306.22
2022-11-04T03:30:55.739Z,97314.69
2022-11-04T03:33:25.241Z,97327.69
2022-11-04T03:35:52.623Z,97320.94
2022-11-04T03:38:21.313Z,97328.78
2022-11-04T03:40:47.805Z,97327.06
2022-11-04T03:43:20.097Z,97325.25
2022-11-04T03:48:23.881Z,97323.66
2022-11-04T03:50:51.197Z,97321.06
2022-11-04T03:53:22.524Z,97321.94
2022-11-04T03:56:14.513Z,97318.56
2022-11-04T03:59:10.586Z,97321.94
2022-11-04T04:01:46.065Z,97322.75
2022-11-04T04:04:19.628Z,97319.38
2022-11-04T04:06:46.718Z,97321.94
2022-11-04T04:09:39.478Z,97327.69
2022-11-04T04:12:26.203Z,97328.53
2022-11-04T04:14:56.378Z,97327.56
2022-11-04T04:17:45.299Z,97325.88
2022-11-04T04:20:33.930Z,97326.16
2022-11-04T04:23:24.715Z,97321.94
2022-11-04T04:26:12.389Z,97322.81
2022-11-04T04:28:40.226Z,97322.81
2022-11-04T04:31:09.733Z,97333.75
2022-11-04T04:33:36.198Z,97342.38
2022-11-04T04:36:02.920Z,97340.66
2022-11-04T04:38:51.175Z,97339.94
2022-11-04T04:41:40.065Z,97337.09
2022-11-04T04:44:36.976Z,97344.84
2022-11-04T04:47:04.605Z,97339.63
2022-11-04T04:49:35.148Z,97333.81
2022-11-04T04:52:08.031Z,97333.75
2022-11-04T04:54:34.414Z,97327.78
2022-11-04T04:57:00.802Z,97314.75
2022-11-04T04:59:27.301Z,97313.16
2022-11-04T05:01:53.780Z,97305.50
2022-11-04T05:04:20.327Z,97299.66
2022-11-04T05:06:46.711Z,97299.66
2022-11-04T05:09:13.111Z,97305.06
2022-11-04T05:11:39.549Z,97293.03
2022-11-04T05:14:05.974Z,97295.59
2022-11-04T05:16:35.465Z,97300.00
2022-11-04T05:19:05.962Z,97302.78
2022-11-04T05:21:32.523Z,97306.34
2022-11-04T05:23:58.914Z,97299.47
2022-11-04T05:26:25.378Z,97293.34
2022-11-04T05:28:51.790Z,97283.06
2022-11-04T05:31:18.470Z,97281.50
2022-11-04T05:33:44.876Z,97276.63
2022-11-04T05:36:13.611Z,97277.38
2022-11-04T05:38:40.538Z,97274.94
2022-11-04T05:41:09.052Z,97276.88
2022-11-04T05:43:35.402Z,97281.13
2022-11-04T05:46:01.938Z,97287.16
2022-11-04T05:48:28.601Z,97289.69
2022-11-04T05:50:55.567Z,97297.28
2022-11-04T05:53:22.136Z,97307.72
2022-11-04T05:55:48.611Z,97329.88
2022-11-04T05:58:15.094Z,97346.22
2022-11-04T06:00:41.518Z,97345.50
2022-11-04T06:03:10.729Z,97321.53
2022-11-04T06:05:40.066Z,97280.34
2022-11-04T06:08:06.776Z,97264.78
2022-11-04T06:10:33.401Z,97286.31
2022-11-04T06:12:59.846Z,97300.28
2022-11-04T06:15:26.334Z,97316.72
2022-11-04T06:17:52.795Z,97330.75
2022-11-04T06:20:19.206Z,97353.66
2022-11-04T06:22:45.621Z,97359.69
2022-11-04T06:25:12.126Z,97359.69
2022-11-04T06:27:38.498Z,97370.88
2022-11-04T06:30:05.482Z,97376.94
2022-11-04T06:32:31.913Z,97385.47
2022-11-04T06:34:58.338Z,97401.69
2022-11-04T06:37:24.744Z,97397.28
2022-11-04T06:39:51.114Z,97407.81
2022-11-04T06:42:17.575Z,97420.47
2022-11-04T06:44:43.977Z,97433.28
2022-11-04T06:47:10.546Z,97438.44
2022-11-04T06:49:36.927Z,97435.06
2022-11-04T06:52:03.493Z,97442.13
2022-11-04T06:54:30.051Z,97436.16
2022-11-04T06:56:56.467Z,97436.03
2022-11-04T06:59:24.002Z,97428.31
2022-11-04T07:01:51.914Z,97424.25
2022-11-04T07:04:19.418Z,97421.69
2022-11-04T07:06:46.152Z,97421.81
2022-11-04T07:09:14.388Z,97419.34
2022-11-04T07:11:42.507Z,97424.56
2022-11-04T07:14:09.902Z,97434.84
2022-11-04T07:16:36.878Z,97438.88
2022-11-04T07:19:03.712Z,97430.41
2022-11-04T07:21:30.283Z,97424.97
2022-11-04T07:23:56.730Z,97410.31
2022-11-04T07:26:23.135Z,97406.00
2022-11-04T07:28:49.774Z,97391.38
2022-11-04T07:31:18.000Z,97383.63
2022-11-04T07:33:49.696Z,97359.94
2022-11-04T07:36:17.153Z,97360.72
2022-11-04T07:38:43.742Z,97369.69
2022-11-04T07:41:10.182Z,97373.19
2022-11-04T07:43:36.566Z,97361.31
2022-11-04T07:46:05.969Z,97364.03
2022-11-04T07:48:32.802Z,97371.78
2022-11-04T07:51:00.381Z,97374.19
2022-11-04T07:53:27.957Z,97350.97
2022-11-04T07:55:54.404Z,97344.09
2022-11-04T07:58:21.353Z,97340.56
2022-11-04T08:00:48.000Z,97352.47
2022-11-04T08:03:14.506Z,97354.19
2022-11-04T08:05:41.002Z,97353.25
2022-11-04T08:08:07.738Z,97353.00
2022-11-04T08:10:34.442Z,97355.44
2022-11-04T08:13:00.845Z,97355.50
2022-11-04T08:15:29.127Z,97369.28
2022-11-04T08:17:55.578Z,97388.00
2022-11-04T08:20:22.004Z,97401.81
2022-11-04T08:22:48.431Z,97407.56
2022-11-04T08:25:14.935Z,97410.19
2022-11-04T08:27:41.346Z,97415.03
2022-11-04T08:30:08.831Z,97429.69
2022-11-04T08:32:35.423Z,97432.41
2022-11-04T08:35:01.853Z,97431.34
2022-11-04T08:37:28.271Z,97443.34
2022-11-04T08:39:54.664Z,97444.22
2022-11-04T08:42:21.071Z,97450.16
2022-11-04T08:44:51.561Z,97462.78
2022-11-04T08:47:18.448Z,97464.69
2022-11-04T08:49:44.846Z,97462.78
2022-11-04T08:52:11.352Z,97464.66
2022-11-04T08:54:37.758Z,97466.31
2022-11-04T08:57:04.387Z,97466.25
2022-11-04T08:59:30.799Z,97467.03
2022-11-04T09:01:57.400Z,97467.09
2022-11-04T09:04:24.014Z,97464.59
2022-11-04T09:06:52.113Z,97464.66
2022-11-04T09:09:19.013Z,97460.97
2022-11-04T09:11:46.464Z,97459.91
2022-11-04T09:14:13.709Z,97458.13
2022-11-04T09:16:41.754Z,97458.06
2022-11-04T09:19:08.559Z,97457.22
2022-11-04T09:21:35.111Z,97460.63
2022-11-04T09:24:01.632Z,97467.34
2022-11-04T09:26:28.553Z,97464.78
2022-11-04T09:28:56.113Z,97466.44
2022-11-04T09:31:23.809Z,97445.72
2022-11-04T09:33:50.911Z,97426.81
2022-11-04T09:36:17.589Z,97416.50
2022-11-04T09:38:45.233Z,97406.34
2022-11-04T09:41:42.279Z,97397.19
2022-11-04T09:44:14.836Z,97396.31
2022-11-04T09:46:42.281Z,97393.91
2022-11-04T09:49:12.729Z,97404.56
2022-11-04T09:51:56.954Z,97414.03
2022-11-04T09:54:27.138Z,97425.13
2022-11-04T09:56:57.798Z,97425.06
2022-11-04T09:59:28.668Z,97421.50
2022-11-04T10:02:02.372Z,97424.25
2022-11-04T10:04:44.056Z,97431.72
2022-11-04T10:07:17.346Z,97428.97
2022-11-04T10:10:08.274Z,97428.84
2022-11-04T10:13:13.394Z,97420.81
2022-11-04T10:16:18.420Z,97414.22
2022-11-04T10:18:50.212Z,97411.38
2022-11-04T10:21:35.980Z,97404.31
2022-11-04T10:24:18.294Z,97403.91
2022-11-04T10:27:00.670Z,97401.75
2022-11-04T10:29:34.174Z,97401.09
2022-11-04T10:32:03.783Z,97394.50
2022-11-04T10:34:56.344Z,97391.41
2022-11-04T10:37:26.637Z,97386.59
2022-11-04T10:40:01.181Z,97383.03
2022-11-04T10:42:27.622Z,97380.31
2022-11-04T10:44:56.465Z,97383.63
2022-11-04T10:47:42.516Z,97391.34
2022-11-04T10:50:37.898Z,97391.00
2022-11-04T10:53:23.109Z,97394.66
2022-11-04T10:56:04.782Z,97394.00
2022-11-04T10:58:37.417Z,97409.41
2022-11-04T11:01:26.081Z,97412.94
2022-11-04T11:03:52.922Z,97419.13
2022-11-04T11:06:29.823Z,97416.56
2022-11-04T11:09:12.987Z,97420.50
2022-11-04T11:11:47.498Z,97421.28
2022-11-04T11:14:30.515Z,97417.50
2022-11-04T11:17:17.261Z,97421.59
2022-11-04T11:20:05.855Z,97416.06
2022-11-04T11:22:38.267Z,97407.56
2022-11-04T11:25:42.432Z,97395.72
2022-11-04T11:28:21.370Z,97398.53
2022-11-04T11:30:47.714Z,97389.88
2022-11-04T11:33:18.609Z,97390.16
2022-11-04T11:35:56.363Z,97384.91
2022-11-04T11:38:30.808Z,97387.78
2022-11-04T11:41:24.256Z,97365.41
2022-11-04T11:43:53.877Z,97361.34
2022-11-04T11:46:26.104Z,97366.50
2022-11-04T11:48:57.674Z,97365.44
2022-11-04T11:51:31.692Z,97373.63
2022-11-04T11:54:15.378Z,97368.09
2022-11-04T11:57:12.109Z,97373.63
2022-11-04T12:02:53.969Z,97383.66
2022-11-04T12:11:32.781Z,97360.72
2022-11-04T12:14:13.779Z,97354.97
2022-11-04T12:16:58.904Z,97351.84
2022-11-04T12:19:45.140Z,97354.44
2022-11-04T12:22:27.011Z,97358.47
2022-11-04T12:25:05.473Z,97361.13
2022-11-04T12:27:43.663Z,97373.09
2022-11-04T12:30:22.315Z,97379.88
2022-11-04T12:33:21.135Z,97379.72
2022-11-04T12:35:53.547Z,97382.94
2022-11-04T12:38:56.846Z,97385.28
2022-11-04T12:42:06.458Z,97394.47
2022-11-04T12:44:34.485Z,97396.41
2022-11-04T12:47:13.889Z,97397.34
2022-11-04T12:50:18.908Z,97392.78
2022-11-04T12:53:10.774Z,97396.34
2022-11-04T12:56:04.948Z,97402.50
2022-11-04T12:58:31.388Z,97399.00
2022-11-04T13:01:03.462Z,97404.03
2022-11-04T13:03:41.396Z,97397.91
2022-11-04T13:06:18.179Z,97411.47
2022-11-04T13:08:52.705Z,97416.63
2022-11-04T13:11:24.912Z,97416.06
2022-11-04T13:14:21.215Z,97419.19
2022-11-04T13:16:51.727Z,97414.53
2022-11-04T13:19:31.530Z,97415.41
2022-11-04T13:22:02.761Z,97410.38
2022-11-04T13:24:32.978Z,97400.88
2022-11-04T13:27:03.164Z,97414.31
2022-11-04T13:29:34.412Z,97400.22
2022-11-04T13:32:21.036Z,97401.78
2022-11-04T13:34:57.344Z,97399.78
2022-11-04T13:37:33.825Z,97401.75
2022-11-04T13:40:10.494Z,97399.47
2022-11-04T13:43:37.502Z,97401.22
2022-11-04T13:46:16.516Z,97403.00
2022-11-04T13:49:12.167Z,97399.81
2022-11-04T13:51:38.570Z,97396.50
2022-11-04T13:54:06.556Z,97401.91
2022-11-04T13:56:41.017Z,97402.47
2022-11-04T13:59:34.252Z,97402.25
2022-11-04T14:02:37.808Z,97404.22
2022-11-04T14:05:34.520Z,97407.22
2022-11-04T14:08:01.061Z,97418.38
2022-11-04T14:10:49.619Z,97416.94
2022-11-04T14:13:31.575Z,97422.09
2022-11-04T14:16:17.646Z,97428.72
2022-11-04T14:18:46.878Z,97427.25
2022-11-04T14:21:15.882Z,97432.47
2022-11-04T14:23:46.040Z,97435.88
2022-11-04T14:26:18.432Z,97435.38
2022-11-04T14:28:47.970Z,97439.72
2022-11-04T14:31:33.831Z,97440.81
2022-11-04T14:34:01.227Z,97444.44
2022-11-04T14:36:35.331Z,97448.75
2022-11-04T14:39:12.715Z,97452.16
2022-11-04T14:41:57.501Z,97459.16
2022-11-04T14:44:31.796Z,97454.88
2022-11-04T14:47:25.614Z,97461.09
2022-11-04T14:49:58.136Z,97467.16
2022-11-04T14:52:40.616Z,97472.19
2022-11-04T14:55:29.674Z,97475.66
2022-11-04T14:58:00.652Z,97468.31
2022-11-04T15:00:34.234Z,97468.47
2022-11-04T15:03:03.981Z,97473.81
2022-11-04T15:05:33.353Z,97468.81
2022-11-04T15:07:59.852Z,97472.34
2022-11-04T15:10:28.224Z,97475.81
2022-11-04T15:13:01.067Z,97473.22
2022-11-04T15:15:44.411Z,97473.75
2022-11-04T15:18:28.122Z,97473.97
2022-11-04T15:21:03.105Z,97477.69
2022-11-04T15:24:04.812Z,97478.59
2022-11-04T15:42:51.087Z,97491.69
2022-11-04T15:45:26.502Z,97496.97
2022-11-04T15:48:26.783Z,97496.97
2022-11-04T15:51:03.100Z,97504.84
2022-11-04T15:53:29.584Z,97504.25
2022-11-04T15:55:56.225Z,97505.47
2022-11-04T15:58:22.749Z,97507.28
2022-11-04T16:00:54.687Z,97505.84
2022-11-04T16:03:24.132Z,97505.97
2022-11-04T16:06:05.278Z,97514.91
2022-11-04T16:08:32.419Z,97512.50
2022-11-04T16:11:18.753Z,97515.19
2022-11-04T16:13:46.325Z,97516.19
2022-11-04T16:16:27.045Z,97513.91
2022-11-04T16:19:00.241Z,97514.03
2022-11-04T16:21:32.113Z,97516.66
2022-11-04T16:24:20.555Z,97513.38
2022-11-04T16:26:48.119Z,97510.91
2022-11-04T16:29:25.607Z,97521.44
2022-11-04T16:32:26.745Z,97514.72
2022-11-04T16:34:57.233Z,97519.03
2022-11-04T16:37:25.616Z,97520.81
2022-11-04T16:39:52.157Z,97517.44
2022-11-04T16:42:18.898Z,97518.44
2022-11-04T16:44:48.183Z,97518.63
2022-11-04T16:47:14.585Z,97519.72
2022-11-04T16:49:41.196Z,97518.13
2022-11-04T16:52:15.203Z,97517.38
2022-11-04T16:54:41.648Z,97523.53
2022-11-04T16:57:11.817Z,97517.59
2022-11-04T16:59:38.281Z,97517.66
2022-11-04T17:02:25.420Z,97517.72
2022-11-04T17:04:52.052Z,97524.66
2022-11-04T17:07:30.386Z,97521.22
2022-11-04T17:10:20.915Z,97528.22
2022-11-04T17:12:47.854Z,97540.44
2022-11-04T17:15:15.700Z,97537.03
2022-11-04T17:17:42.891Z,97547.25
2022-11-04T17:20:13.924Z,97548.97
2022-11-04T17:22:43.673Z,97555.22
2022-11-04T17:25:22.410Z,97556.00
2022-11-04T17:27:49.239Z,97559.47
2022-11-04T17:30:18.755Z,97564.69
2022-11-04T17:32:46.745Z,97563.13
2022-11-04T17:35:14.404Z,97565.75
2022-11-04T17:37:41.032Z,97564.91
2022-11-04T17:40:09.196Z,97575.19
2022-11-04T17:42:54.354Z,97584.53
2022-11-04T17:45:20.753Z,97586.25
2022-11-04T17:47:47.199Z,97587.88
2022-11-04T17:50:13.852Z,97593.06
2022-11-04T17:52:42.153Z,97593.03
2022-11-04T17:55:15.464Z,97600.72
2022-11-04T17:57:43.257Z,97600.81
2022-11-04T18:00:10.535Z,97600.81
2022-11-04T18:02:38.692Z,97611.06
2022-11-04T18:05:05.591Z,97602.47
2022-11-04T18:07:31.981Z,97610.94
2022-11-04T18:09:58.402Z,97614.31
2022-11-04T18:12:37.411Z,97607.50
2022-11-04T18:15:17.247Z,97616.00
2022-11-04T18:17:46.187Z,97615.88
2022-11-04T18:20:15.390Z,97610.75
2022-11-04T18:22:43.033Z,97621.84
2022-11-04T18:25:10.287Z,97615.75
2022-11-04T18:27:36.887Z,97619.06
2022-11-04T18:30:03.620Z,97621.63
2022-11-04T18:32:29.995Z,97623.38
2022-11-04T18:34:56.407Z,97613.97
2022-11-04T18:37:23.853Z,97618.31
2022-11-04T18:39:50.247Z,97622.41
2022-11-04T18:42:16.690Z,97624.25
2022-11-04T18:44:43.145Z,97626.88
2022-11-04T18:47:10.745Z,97630.31
2022-11-04T18:49:37.163Z,97629.53
2022-11-04T18:52:03.721Z,97625.28
2022-11-04T18:54:30.318Z,97632.22
2022-11-04T18:56:56.741Z,97635.66
2022-11-04T18:59:23.135Z,97637.44
2022-11-04T19:01:51.621Z,97646.00
2022-11-04T19:04:18.470Z,97641.69
2022-11-04T19:06:45.374Z,97649.34
2022-11-04T19:09:45.650Z,97652.81
2022-11-04T19:12:21.878Z,97654.44
2022-11-04T19:14:48.276Z,97656.22
2022-11-04T19:17:14.948Z,97656.22
2022-11-04T19:19:42.819Z,97667.28
2022-11-04T19:22:10.113Z,97660.47
2022-11-04T19:24:36.770Z,97669.06
2022-11-04T19:27:03.368Z,97665.66
2022-11-04T19:29:30.070Z,97665.72
2022-11-04T19:31:56.591Z,97677.66
2022-11-04T19:34:23.038Z,97672.47
2022-11-04T19:36:49.417Z,97691.41
2022-11-04T19:39:15.846Z,97692.25
2022-11-04T19:42:00.983Z,97695.59
2022-11-04T19:44:27.454Z,97698.16
2022-11-04T19:46:53.998Z,97701.66
2022-11-04T19:49:20.654Z,97708.50
2022-11-04T19:51:47.321Z,97703.34
2022-11-04T19:54:13.739Z,97716.19
2022-11-04T19:56:40.273Z,97711.06
2022-11-04T19:59:09.065Z,97718.78
2022-11-04T20:01:38.444Z,97718.78
2022-11-04T20:04:05.187Z,97724.72
2022-11-04T20:06:33.056Z,97728.06
2022-11-04T20:09:04.200Z,97729.00
2022-11-04T20:11:31.467Z,97733.34
2022-11-04T20:13:59.284Z,97736.75
2022-11-04T20:16:32.303Z,97741.91
2022-11-04T20:19:01.316Z,97740.28
2022-11-04T20:21:34.617Z,97749.75
2022-11-04T20:24:07.179Z,97747.13
2022-11-04T20:26:35.926Z,97760.91
2022-11-04T20:29:03.864Z,97765.16
2022-11-04T20:31:33.191Z,97766.00
2022-11-04T20:34:04.666Z,97764.28
2022-11-04T20:36:32.100Z,97773.69
2022-11-04T20:39:00.211Z,97773.63
2022-11-04T20:41:30.302Z,97776.22
2022-11-04T20:43:56.902Z,97785.63
2022-11-04T20:46:25.951Z,97785.56
2022-11-04T20:48:52.824Z,97787.28
2022-11-04T20:51:24.595Z,97795.75
2022-11-04T20:53:56.026Z,97800.94
2022-11-04T20:56:26.113Z,97802.63
2022-11-04T20:58:58.985Z,97805.13
2022-11-04T21:01:30.269Z,97813.75
2022-11-04T21:04:01.073Z,97810.41
2022-11-04T21:06:28.195Z,97812.09
2022-11-04T21:08:54.789Z,97811.28
2022-11-04T21:11:21.354Z,97814.72
2022-11-04T21:13:47.863Z,97816.31
2022-11-04T21:16:15.122Z,97820.50
2022-11-04T21:18:41.502Z,97825.69
2022-11-04T21:21:09.237Z,97824.84
2022-11-04T21:23:35.731Z,97828.19
2022-11-04T21:26:08.213Z,97828.25
2022-11-04T21:28:34.660Z,97834.19
2022-11-04T21:31:09.868Z,97842.69
2022-11-04T21:33:39.500Z,97833.25
2022-11-04T21:36:08.430Z,97841.91
2022-11-04T21:38:35.206Z,97847.13
2022-11-04T21:41:10.785Z,97843.63
2022-11-04T21:43:37.212Z,97837.69
2022-11-04T21:46:08.674Z,97842.94
2022-11-04T21:48:36.554Z,97842.97
2022-11-04T21:51:07.977Z,97840.50
2022-11-04T21:53:34.539Z,97842.19
2022-11-04T21:56:05.773Z,97849.88
2022-11-04T21:58:32.820Z,97853.34
2022-11-04T22:00:59.314Z,97842.28
2022-11-04T22:03:28.357Z,97847.44
2022-11-04T22:06:04.228Z,97848.44
2022-11-04T22:08:31.637Z,97855.38
2022-11-04T22:11:11.178Z,97852.03
2022-11-04T22:13:37.652Z,97851.25
2022-11-04T22:16:15.875Z,97849.47
2022-11-04T22:18:42.792Z,97855.53
2022-11-04T22:21:13.200Z,97845.38
2022-11-04T22:23:40.290Z,97854.84
2022-11-04T22:26:10.248Z,97853.22
2022-11-04T22:28:36.729Z,97864.38
2022-11-04T22:31:08.993Z,97865.28
2022-11-04T22:33:36.172Z,97869.59
2022-11-04T22:36:02.708Z,97864.53
2022-11-04T22:38:30.638Z,97867.19
2022-11-04T22:40:58.155Z,97861.22
2022-11-04T22:43:25.759Z,97863.06
2022-11-04T22:45:54.155Z,97868.25
2022-11-04T22:48:21.078Z,97876.91
2022-11-04T22:50:54.941Z,97888.88
2022-11-04T22:53:21.507Z,97897.31
2022-11-04T22:55:47.921Z,97896.53
2022-11-04T22:58:14.329Z,97893.91
2022-11-04T23:00:40.828Z,97888.03
2022-11-04T23:03:07.443Z,97889.78
2022-11-04T23:05:34.287Z,97882.94
2022-11-04T23:08:01.083Z,97883.94
2022-11-04T23:10:47.119Z,97881.41
2022-11-04T23:13:32.944Z,97876.38
2022-11-04T23:16:18.383Z,97874.72
2022-11-04T23:18:47.705Z,97872.19
2022-11-04T23:21:35.348Z,97881.72
2022-11-04T23:24:20.723Z,97887.78
2022-11-04T23:26:47.699Z,97890.41
2022-11-04T23:29:34.358Z,97898.09
2022-11-04T23:32:00.826Z,97897.44
2022-11-04T23:34:46.515Z,97891.44
2022-11-04T23:37:13.670Z,97894.09
2022-11-04T23:39:50.479Z,97896.72
2022-11-04T23:42:22.767Z,97903.56
2022-11-04T23:45:10.441Z,97909.47
2022-11-04T23:47:58.251Z,97914.59
2022-11-04T23:50:45.116Z,97906.03
2022-11-04T23:53:32.558Z,97906.03
2022-11-04T23:56:18.014Z,97899.28
2022-11-04T23:59:02.832Z,97908.69
